createdAt,value
2022-10-02T00:02:20.634Z,101005.88
2022-10-02T00:08:24.765Z,101013.59
2022-10-02T00:10:57.965Z,101015.50
2022-10-02T00:35:39.198Z,101035.09
2022-10-02T00:38:23.126Z,101047.81
2022-10-02T00:45:09.074Z,101028.81
2022-10-02T00:49:08.023Z,101036.88
2022-10-02T00:52:23.264Z,101039.75
2022-10-02T00:56:05.088Z,101053.19
2022-10-02T01:06:35.007Z,101061.28
2022-10-02T01:10:23.324Z,101053.59
2022-10-02T01:13:24.850Z,101048.41
2022-10-02T01:31:16.880Z,101075.97
2022-10-02T01:33:48.607Z,101071.53
2022-10-02T01:36:19.006Z,101086.78
2022-10-02T01:39:39.074Z,101092.81
2022-10-02T01:54:05.754Z,101122.97
2022-10-02T02:03:51.808Z,101130.81
2022-10-02T02:45:15.363Z,101143.94
2022-10-02T02:47:50.109Z,101157.34
2022-10-02T02:51:04.881Z,101179.22
2022-10-02T03:19:20.140Z,101207.09
2022-10-02T03:22:56.809Z,101206.56
2022-10-02T03:26:29.954Z,101192.09
2022-10-02T03:29:53.147Z,101204.47
2022-10-02T03:32:31.897Z,101213.63
2022-10-02T03:35:04.711Z,101213.81
2022-10-02T03:37:41.164Z,101218.56
2022-10-02T03:40:10.527Z,101214.19
2022-10-02T03:42:40.250Z,101221.59
2022-10-02T03:45:19.607Z,101227.09
2022-10-02T03:48:00.523Z,101235.19
2022-10-02T03:50:31.760Z,101245.00
2022-10-02T03:53:08.523Z,101253.03
2022-10-02T03:55:41.339Z,101260.50
2022-10-02T03:58:14.749Z,101264.19
2022-10-02T04:00:54.145Z,101257.31
2022-10-02T04:03:28.291Z,101264.66
2022-10-02T04:06:03.606Z,101275.31
2022-10-02T04:08:37.879Z,101281.25
2022-10-02T04:11:13.987Z,101299.06
2022-10-02T04:13:48.528Z,101298.22
2022-10-02T04:16:25.531Z,101307.28
2022-10-02T04:18:57.827Z,101308.13
2022-10-02T04:21:34.693Z,101308.88
2022-10-02T04:24:11.430Z,101305.19
2022-10-02T04:26:45.657Z,101308.38
2022-10-02T04:29:20.514Z,101320.53
2022-10-02T04:31:56.246Z,101330.16
2022-10-02T04:34:24.784Z,101323.91
2022-10-02T04:37:12.456Z,101320.13
2022-10-02T04:39:54.883Z,101328.72
2022-10-02T04:42:35.470Z,101329.16
2022-10-02T04:45:30.812Z,101317.69
2022-10-02T04:48:37.579Z,101319.47
2022-10-02T04:51:21.400Z,101328.13
2022-10-02T04:54:10.017Z,101326.22
2022-10-02T04:57:00.946Z,101335.00
2022-10-02T04:59:48.303Z,101331.59
2022-10-02T05:02:33.076Z,101341.03
2022-10-02T05:05:25.678Z,101352.72
2022-10-02T05:08:18.326Z,101348.22
2022-10-02T05:10:59.547Z,101355.66
2022-10-02T05:13:48.148Z,101356.06
2022-10-02T05:16:34.455Z,101362.66
2022-10-02T05:19:33.115Z,101374.56
2022-10-02T05:22:20.251Z,101386.31
2022-10-02T05:24:59.628Z,101387.47
2022-10-02T05:27:58.188Z,101391.31
2022-10-02T05:30:29.427Z,101396.88
2022-10-02T05:33:36.573Z,101396.16
2022-10-02T05:36:31.566Z,101407.94
2022-10-02T05:39:09.109Z,101410.75
2022-10-02T05:41:52.543Z,101417.25
2022-10-02T05:44:26.014Z,101422.69
2022-10-02T05:47:02.190Z,101426.56
2022-10-02T05:49:36.812Z,101426.94
2022-10-02T05:52:14.497Z,101427.84
2022-10-02T05:54:50.326Z,101432.00
2022-10-02T05:57:27.736Z,101437.09
2022-10-02T06:00:07.193Z,101451.22
2022-10-02T06:02:43.722Z,101452.06
2022-10-02T06:05:22.900Z,101457.34
2022-10-02T06:07:56.263Z,101460.94
2022-10-02T06:10:31.791Z,101460.31
2022-10-02T06:13:08.825Z,101469.00
2022-10-02T06:15:47.209Z,101466.28
2022-10-02T06:18:22.046Z,101478.63
2022-10-02T06:20:55.669Z,101482.03
2022-10-02T06:23:28.310Z,101485.56
2022-10-02T06:26:02.855Z,101484.38
2022-10-02T06:28:37.058Z,101484.19
2022-10-02T06:31:14.938Z,101483.25
2022-10-02T06:33:44.054Z,101496.09
2022-10-02T06:36:41.396Z,101496.94
2022-10-02T06:39:35.904Z,101509.94
2022-10-02T06:42:23.085Z,101518.59
2022-10-02T06:45:06.722Z,101521.06
2022-10-02T06:47:49.937Z,101515.53
2022-10-02T06:50:32.873Z,101515.25
2022-10-02T06:53:10.693Z,101526.66
2022-10-02T06:55:49.860Z,101531.06
2022-10-02T06:58:40.549Z,101527.38
2022-10-02T07:01:16.150Z,101531.38
2022-10-02T07:04:12.917Z,101540.13
2022-10-02T07:07:01.368Z,101548.03
2022-10-02T07:09:55.590Z,101546.81
2022-10-02T07:12:39.415Z,101556.34
2022-10-02T07:15:29.077Z,101558.22
2022-10-02T07:18:09.596Z,101571.63
2022-10-02T07:20:52.484Z,101568.97
2022-10-02T07:23:43.407Z,101559.63
2022-10-02T07:26:36.904Z,101570.00
2022-10-02T07:29:22.630Z,101568.31
2022-10-02T07:32:15.483Z,101581.78
2022-10-02T07:34:57.803Z,101586.84
2022-10-02T07:37:33.701Z,101598.00
2022-10-02T07:40:21.802Z,101599.06
2022-10-02T07:43:34.871Z,101602.94
2022-10-02T07:46:18.821Z,101593.50
2022-10-02T07:49:09.783Z,101595.91
2022-10-02T07:51:50.335Z,101594.78
2022-10-02T07:54:52.989Z,101606.03
2022-10-02T07:57:35.504Z,101592.13
2022-10-02T08:00:08.946Z,101596.22
2022-10-02T08:02:41.779Z,101591.50
2022-10-02T08:05:19.776Z,101597.91
2022-10-02T08:07:51.053Z,101597.91
2022-10-02T08:10:26.131Z,101605.94
2022-10-02T08:13:04.914Z,101604.59
2022-10-02T08:15:39.169Z,101610.91
2022-10-02T08:18:33.690Z,101606.56
2022-10-02T08:21:07.333Z,101613.81
2022-10-02T08:23:44.186Z,101615.00
2022-10-02T08:26:20.569Z,101622.53
2022-10-02T08:28:57.051Z,101616.34
2022-10-02T08:31:27.768Z,101628.75
2022-10-02T08:33:58.249Z,101631.94
2022-10-02T08:36:50.797Z,101637.47
2022-10-02T08:39:50.784Z,101635.53
2022-10-02T08:42:58.805Z,101634.56
2022-10-02T08:46:09.170Z,101638.00
2022-10-02T08:49:02.164Z,101640.00
2022-10-02T08:52:10.417Z,101651.59
2022-10-02T08:55:07.188Z,101658.69
2022-10-02T08:58:04.617Z,101661.06
2022-10-02T09:00:41.959Z,101654.75
2022-10-02T09:03:56.292Z,101652.28
2022-10-02T09:07:00.485Z,101644.84
2022-10-02T09:10:15.279Z,101659.91
2022-10-02T09:13:17.897Z,101666.75
2022-10-02T09:15:55.372Z,101664.41
2022-10-02T09:18:59.347Z,101669.50
2022-10-02T09:22:17.978Z,101664.19
2022-10-02T09:25:17.577Z,101671.97
2022-10-02T09:28:18.731Z,101665.81
2022-10-02T09:31:41.529Z,101677.03
2022-10-02T09:34:48.458Z,101681.00
2022-10-02T09:37:44.265Z,101681.56
2022-10-02T09:40:56.823Z,101692.06
2022-10-02T09:44:06.685Z,101699.25
2022-10-02T09:47:14.219Z,101700.38
2022-10-02T09:50:16.560Z,101710.00
2022-10-02T09:53:19.113Z,101712.50
2022-10-02T09:56:36.271Z,101715.00
2022-10-02T10:00:00.468Z,101708.28
2022-10-02T10:03:10.200Z,101714.06
2022-10-02T10:06:00.127Z,101721.88
2022-10-02T10:08:56.681Z,101723.25
2022-10-02T10:11:58.322Z,101736.19
2022-10-02T10:15:01.891Z,101734.56
2022-10-02T10:18:01.098Z,101740.22
2022-10-02T10:21:08.995Z,101735.38
2022-10-02T10:24:24.452Z,101737.63
2022-10-02T10:27:30.909Z,101736.66
2022-10-02T10:30:28.795Z,101752.97
2022-10-02T10:33:34.945Z,101760.09
2022-10-02T10:36:58.206Z,101768.69
2022-10-02T10:39:58.479Z,101766.78
2022-10-02T10:43:16.703Z,101769.34
2022-10-02T10:45:56.647Z,101770.53
2022-10-02T10:48:37.966Z,101772.00
2022-10-02T10:51:31.113Z,101766.56
2022-10-02T10:54:48.738Z,101762.22
2022-10-02T10:57:35.253Z,101773.41
2022-10-02T11:00:27.951Z,101757.00
2022-10-02T11:03:27.109Z,101759.31
2022-10-02T11:06:22.576Z,101768.63
2022-10-02T11:09:15.373Z,101766.78
2022-10-02T11:12:05.259Z,101772.50
2022-10-02T11:14:54.048Z,101768.66
2022-10-02T11:17:41.899Z,101766.41
2022-10-02T11:20:35.593Z,101773.97
2022-10-02T11:23:39.369Z,101772.84
2022-10-02T11:26:27.849Z,101775.41
2022-10-02T11:29:22.304Z,101779.91
2022-10-02T11:32:12.940Z,101779.03
2022-10-02T11:34:59.621Z,101760.69
2022-10-02T11:37:47.500Z,101765.66
2022-10-02T11:40:35.708Z,101766.66
2022-10-02T11:43:16.692Z,101767.56
2022-10-02T11:46:22.159Z,101769.88
2022-10-02T11:49:25.723Z,101763.56
2022-10-02T11:52:26.676Z,101762.69
2022-10-02T11:55:17.090Z,101754.59
2022-10-02T11:57:57.709Z,101778.28
2022-10-02T12:01:06.061Z,101776.72
2022-10-02T12:03:46.836Z,101776.25
2022-10-02T12:06:27.772Z,101783.34
2022-10-02T12:09:04.338Z,101781.78
2022-10-02T12:11:42.319Z,101787.44
2022-10-02T12:14:29.791Z,101784.19
2022-10-02T12:17:10.812Z,101791.63
2022-10-02T12:20:12.142Z,101788.25
2022-10-02T12:23:08.655Z,101785.88
2022-10-02T12:26:02.603Z,101792.00
2022-10-02T12:28:39.180Z,101802.63
2022-10-02T12:31:20.936Z,101795.19
2022-10-02T12:34:01.474Z,101798.09
2022-10-02T12:36:46.886Z,101794.91
2022-10-02T12:39:43.847Z,101789.78
2022-10-02T12:42:34.897Z,101795.59
2022-10-02T12:45:34.539Z,101793.72
2022-10-02T12:48:35.769Z,101792.81
2022-10-02T12:51:36.937Z,101796.81
2022-10-02T12:54:52.820Z,101789.78
2022-10-02T12:57:59.006Z,101787.38
2022-10-02T13:00:45.358Z,101788.59
2022-10-02T13:04:02.949Z,101802.75
2022-10-02T13:07:06.161Z,101808.75
2022-10-02T13:09:46.496Z,101818.13
2022-10-02T13:12:37.838Z,101819.16
2022-10-02T13:15:47.895Z,101812.09
2022-10-02T13:18:48.578Z,101812.50
2022-10-02T13:21:37.163Z,101822.06
2022-10-02T13:24:27.718Z,101824.00
2022-10-02T13:27:06.557Z,101824.00
2022-10-02T13:29:54.916Z,101835.16
2022-10-02T13:32:47.305Z,101835.56
2022-10-02T13:35:46.733Z,101844.81
2022-10-02T13:38:44.503Z,101842.19
2022-10-02T13:41:29.544Z,101834.38
2022-10-02T13:44:08.385Z,101841.63
2022-10-02T13:47:18.241Z,101834.03
2022-10-02T13:50:02.992Z,101831.91
2022-10-02T13:52:48.614Z,101831.34
2022-10-02T13:55:29.241Z,101835.75
2022-10-02T13:58:13.792Z,101837.09
2022-10-02T14:01:06.142Z,101842.28
2022-10-02T14:03:47.942Z,101840.34
2022-10-02T14:06:26.711Z,101843.13
2022-10-02T14:09:13.291Z,101842.19
2022-10-02T14:11:59.292Z,101848.75
2022-10-02T14:14:40.535Z,101851.56
2022-10-02T14:17:24.134Z,101845.56
2022-10-02T14:20:22.030Z,101855.97
2022-10-02T14:23:03.718Z,101857.81
2022-10-02T14:25:44.195Z,101866.09
2022-10-02T14:28:37.462Z,101863.13
2022-10-02T14:31:24.956Z,101869.78
2022-10-02T14:34:26.718Z,101871.25
2022-10-02T14:37:04.172Z,101882.75
2022-10-02T14:39:39.727Z,101873.03
2022-10-02T14:42:24.046Z,101875.97
2022-10-02T14:45:33.327Z,101872.22
2022-10-02T14:48:14.878Z,101875.50
2022-10-02T14:51:01.228Z,101881.81
2022-10-02T14:54:00.390Z,101891.00
2022-10-02T14:56:49.531Z,101901.19
2022-10-02T14:59:44.135Z,101895.84
2022-10-02T15:02:46.881Z,101894.75
2022-10-02T15:05:36.455Z,101899.59
2022-10-02T15:08:14.524Z,101900.69
2022-10-02T15:10:46.348Z,101892.47
2022-10-02T15:13:31.891Z,101895.47
2022-10-02T15:16:31.337Z,101888.19
2022-10-02T15:19:12.851Z,101886.97
2022-10-02T15:21:48.726Z,101886.44
2022-10-02T15:24:34.711Z,101897.47
2022-10-02T15:27:14.862Z,101888.03
2022-10-02T15:30:06.928Z,101901.88
2022-10-02T15:32:57.803Z,101910.59
2022-10-02T15:35:51.975Z,101902.28
2022-10-02T15:38:47.885Z,101914.03
2022-10-02T15:41:35.173Z,101922.47
2022-10-02T15:44:12.667Z,101922.38
2022-10-02T15:46:54.241Z,101922.72
2022-10-02T15:49:38.040Z,101923.69
2022-10-02T15:52:18.917Z,101928.78
2022-10-02T15:55:02.169Z,101918.75
2022-10-02T15:57:52.474Z,101931.47
2022-10-02T16:00:23.741Z,101934.47
2022-10-02T16:03:04.247Z,101932.16
2022-10-02T16:05:56.642Z,101930.34
2022-10-02T16:09:14.217Z,101938.94
2022-10-02T16:12:00.106Z,101942.13
2022-10-02T16:14:42.330Z,101949.63
2022-10-02T16:17:30.599Z,101946.84
2022-10-02T16:20:17.564Z,101952.00
2022-10-02T16:23:00.514Z,101951.50
2022-10-02T16:25:59.996Z,101962.53
2022-10-02T16:28:44.690Z,101967.00
2022-10-02T16:31:33.739Z,101971.47
2022-10-02T16:34:19.142Z,101960.22
2022-10-02T16:36:53.543Z,101969.88
2022-10-02T16:39:43.506Z,101977.59
2022-10-02T16:42:21.912Z,101987.75
2022-10-02T16:45:16.165Z,101985.44
2022-10-02T16:47:50.065Z,101979.50
2022-10-02T16:50:25.431Z,101965.25
2022-10-02T16:53:00.411Z,101970.94
2022-10-02T16:55:35.890Z,101980.59
2022-10-02T16:58:19.243Z,101992.31
2022-10-02T17:00:58.969Z,101999.81
2022-10-02T17:03:36.004Z,102002.81
2022-10-02T17:06:18.361Z,102003.03
2022-10-02T17:08:54.343Z,102010.91
2022-10-02T17:11:28.250Z,102013.06
2022-10-02T17:14:11.732Z,102014.91
2022-10-02T17:16:47.955Z,102015.31
2022-10-02T17:19:26.981Z,102022.69
2022-10-02T17:22:01.405Z,102034.28
2022-10-02T17:24:42.543Z,102023.78
2022-10-02T17:27:18.086Z,102030.06
2022-10-02T17:29:55.440Z,102024.84
2022-10-02T17:32:48.575Z,102027.63
2022-10-02T17:35:26.357Z,102025.28
2022-10-02T17:38:13.074Z,102034.97
2022-10-02T17:40:51.886Z,102043.19
2022-10-02T17:43:31.444Z,102039.06
2022-10-02T17:46:21.755Z,102037.47
2022-10-02T17:48:59.234Z,102041.94
2022-10-02T17:51:52.215Z,102047.38
2022-10-02T17:55:00.949Z,102053.03
2022-10-02T17:57:45.509Z,102042.59
2022-10-02T18:00:21.554Z,102045.38
2022-10-02T18:03:15.319Z,102049.72
2022-10-02T18:05:59.098Z,102055.38
2022-10-02T18:08:47.302Z,102062.38
2022-10-02T18:11:40.711Z,102071.13
2022-10-02T18:14:14.966Z,102066.22
2022-10-02T18:16:57.391Z,102078.78
2022-10-02T18:19:34.099Z,102078.31
2022-10-02T18:22:24.266Z,102084.72
2022-10-02T18:25:21.853Z,102077.94
2022-10-02T18:28:04.813Z,102078.97
2022-10-02T18:30:44.519Z,102078.13
2022-10-02T18:33:34.787Z,102079.81
2022-10-02T18:36:19.457Z,102079.63
2022-10-02T18:39:01.879Z,102081.09
2022-10-02T18:41:51.750Z,102078.28
2022-10-02T18:44:39.579Z,102078.56
2022-10-02T18:47:19.154Z,102086.63
2022-10-02T18:50:01.887Z,102099.84
2022-10-02T18:53:13.137Z,102100.44
2022-10-02T18:56:06.416Z,102095.06
2022-10-02T18:58:58.055Z,102103.78
2022-10-02T19:01:57.539Z,102110.19
2022-10-02T19:05:00.311Z,102111.41
2022-10-02T19:07:38.957Z,102114.38
2022-10-02T19:10:29.881Z,102110.78
2022-10-02T19:13:04.805Z,102111.41
2022-10-02T19:15:35.047Z,102114.28
2022-10-02T19:18:05.280Z,102117.03
2022-10-02T19:20:44.226Z,102123.44
2022-10-02T19:23:22.931Z,102124.50
2022-10-02T19:25:54.078Z,102130.38
2022-10-02T19:28:28.469Z,102126.28
2022-10-02T19:31:01.115Z,102127.06
2022-10-02T19:33:45.275Z,102127.91
2022-10-02T19:36:21.631Z,102130.44
2022-10-02T19:38:57.652Z,102138.44
2022-10-02T19:41:26.812Z,102138.97
2022-10-02T19:44:03.253Z,102136.94
2022-10-02T19:46:39.638Z,102138.00
2022-10-02T19:49:10.068Z,102136.00
2022-10-02T19:51:47.810Z,102133.34
2022-10-02T19:54:21.851Z,102132.50
2022-10-02T19:56:56.625Z,102143.13
2022-10-02T19:59:32.946Z,102143.00
2022-10-02T20:02:05.279Z,102147.56
2022-10-02T20:04:36.985Z,102144.28
2022-10-02T20:07:07.329Z,102142.47
2022-10-02T20:09:44.663Z,102152.13
2022-10-02T20:12:18.082Z,102153.00
2022-10-02T20:14:55.528Z,102157.56
2022-10-02T20:17:23.544Z,102161.50
2022-10-02T20:19:55.740Z,102155.13
2022-10-02T20:22:34.564Z,102162.44
2022-10-02T20:25:10.114Z,102165.94
2022-10-02T20:27:45.927Z,102160.44
2022-10-02T20:30:19.452Z,102143.63
2022-10-02T20:32:52.606Z,102153.19
2022-10-02T20:35:29.359Z,102154.16
2022-10-02T20:38:00.451Z,102149.69
2022-10-02T20:40:36.774Z,102147.88
2022-10-02T20:43:10.484Z,102144.38
2022-10-02T20:45:47.247Z,102140.88
2022-10-02T20:49:08.126Z,102143.09
2022-10-02T20:52:10.489Z,102136.19
2022-10-02T20:54:54.482Z,102140.66
2022-10-02T20:58:06.506Z,102137.88
2022-10-02T21:01:02.812Z,102143.00
2022-10-02T21:06:54.294Z,102143.00
2022-10-02T21:09:55.190Z,102132.25
2022-10-02T21:13:06.883Z,102141.41
2022-10-02T21:15:56.878Z,102143.41
2022-10-02T21:19:03.988Z,102146.06
2022-10-02T21:22:17.482Z,102157.66
2022-10-02T21:25:23.269Z,102150.94
2022-10-02T21:28:24.515Z,102148.94
2022-10-02T21:31:12.085Z,102149.25
2022-10-02T21:33:42.386Z,102151.59
2022-10-02T21:36:22.724Z,102144.69
2022-10-02T21:39:16.467Z,102142.03
2022-10-02T21:42:17.783Z,102143.81
2022-10-02T21:45:16.839Z,102139.47
2022-10-02T21:48:39.902Z,102138.63
2022-10-02T21:51:41.609Z,102144.78
2022-10-02T21:54:54.279Z,102138.41
2022-10-02T21:57:52.120Z,102138.41
2022-10-02T22:00:23.588Z,102135.97
2022-10-02T22:03:48.957Z,102129.16
2022-10-02T22:06:39.089Z,102136.38
2022-10-02T22:09:27.111Z,102132.03
2022-10-02T22:12:13.678Z,102133.94
2022-10-02T22:14:48.173Z,102131.28
2022-10-02T22:17:28.184Z,102124.91
2022-10-02T22:20:36.754Z,102129.47
2022-10-02T22:23:30.189Z,102116.09
2022-10-02T22:26:13.869Z,102115.44
2022-10-02T22:28:46.644Z,102118.50
2022-10-02T22:31:41.763Z,102112.34
2022-10-02T22:34:29.414Z,102116.72
2022-10-02T22:37:20.067Z,102113.09
2022-10-02T22:39:55.476Z,102108.09
2022-10-02T22:42:30.526Z,102103.63
2022-10-02T22:45:04.870Z,102100.03
2022-10-02T22:47:41.843Z,102087.59
2022-10-02T22:50:20.186Z,102081.63
2022-10-02T22:52:56.504Z,102079.41
2022-10-02T22:55:29.456Z,102084.28
2022-10-02T22:58:05.370Z,102089.69
2022-10-02T23:00:51.460Z,102078.13
2022-10-02T23:03:26.455Z,102075.56
2022-10-02T23:05:58.826Z,102084.38
2022-10-02T23:08:34.956Z,102077.38
2022-10-02T23:11:12.714Z,102064.09
2022-10-02T23:13:46.305Z,102067.50
2022-10-02T23:16:22.659Z,102062.81
2022-10-02T23:18:58.844Z,102056.00
2022-10-02T23:21:40.029Z,102053.47
2022-10-02T23:24:26.203Z,102048.34
2022-10-02T23:27:04.785Z,102048.78
2022-10-02T23:29:50.809Z,102042.75
2022-10-02T23:32:28.344Z,102041.78
2022-10-02T23:35:06.944Z,102050.41
2022-10-02T23:37:47.153Z,102045.28
2022-10-02T23:40:47.467Z,102042.94
2022-10-02T23:43:24.073Z,102049.41
2022-10-02T23:46:00.622Z,102046.00
2022-10-02T23:48:31.640Z,102044.41
2022-10-02T23:51:43.511Z,102053.97
2022-10-02T23:54:45.405Z,102051.50
2022-10-02T23:57:45.961Z,102052.38
